createdAt,value
2018-03-06T00:01:12.491Z,64.10
2018-03-06T00:03:40.096Z,64.00
2018-03-06T00:06:07.734Z,64.00
2018-03-06T00:08:35.349Z,64.00
2018-03-06T00:11:02.999Z,64.10
2018-03-06T00:13:31.383Z,64.20
2018-03-06T00:15:59.751Z,63.90
2018-03-06T00:18:28.138Z,64.00
2018-03-06T00:20:55.746Z,64.00
2018-03-06T00:23:24.161Z,64.00
2018-03-06T00:25:51.783Z,64.00
2018-03-06T00:28:19.416Z,63.80
2018-03-06T00:30:47.034Z,64.00
2018-03-06T00:33:14.667Z,64.10
2018-03-06T00:35:42.979Z,64.10
2018-03-06T00:38:10.614Z,64.00
2018-03-06T00:40:38.991Z,63.80
2018-03-06T00:43:06.614Z,63.70
2018-03-06T00:45:34.237Z,63.80
2018-03-06T00:48:01.879Z,64.00
2018-03-06T00:50:29.524Z,64.00
2018-03-06T00:52:57.142Z,63.70
2018-03-06T00:55:24.755Z,63.70
2018-03-06T00:57:53.159Z,63.90
2018-03-06T01:00:20.758Z,63.70
2018-03-06T01:02:49.132Z,63.80
2018-03-06T01:05:16.774Z,63.70
2018-03-06T01:07:45.199Z,63.70
2018-03-06T01:10:12.808Z,63.70
2018-03-06T01:12:40.514Z,63.80
2018-03-06T01:15:08.146Z,63.80
2018-03-06T01:17:35.758Z,63.70
2018-03-06T01:20:03.438Z,63.80
2018-03-06T01:22:31.033Z,63.80
2018-03-06T01:24:58.662Z,63.50
2018-03-06T01:27:26.283Z,63.50
2018-03-06T01:29:53.947Z,63.80
2018-03-06T01:32:22.346Z,63.60
2018-03-06T01:34:50.718Z,63.70
2018-03-06T01:37:18.363Z,63.70
2018-03-06T01:39:45.962Z,63.70
2018-03-06T01:42:13.586Z,63.60
2018-03-06T01:44:41.223Z,63.50
2018-03-06T01:47:08.870Z,63.20
2018-03-06T01:49:36.541Z,63.10
2018-03-06T01:52:04.122Z,63.20
2018-03-06T01:54:31.767Z,62.80
2018-03-06T01:57:00.155Z,62.20
2018-03-06T01:59:27.754Z,62.00
2018-03-06T02:01:55.388Z,62.50
2018-03-06T02:04:23.010Z,62.20
2018-03-06T02:06:50.642Z,62.40
2018-03-06T02:09:18.243Z,62.40
2018-03-06T02:11:46.422Z,62.30
2018-03-06T02:14:14.867Z,62.20
2018-03-06T02:16:42.479Z,62.20
2018-03-06T02:19:10.118Z,62.40
2018-03-06T02:21:37.752Z,62.60
2018-03-06T02:24:05.360Z,62.70
2018-03-06T02:26:33.762Z,63.20
2018-03-06T02:29:01.414Z,62.80
2018-03-06T02:31:29.027Z,62.80
2018-03-06T02:33:57.427Z,63.20
2018-03-06T02:36:25.046Z,63.10
2018-03-06T02:38:52.683Z,63.20
2018-03-06T02:41:21.105Z,63.00
2018-03-06T02:43:48.722Z,63.00
2018-03-06T02:46:16.356Z,62.60
2018-03-06T02:54:25.938Z,62.50
2018-03-06T02:56:53.607Z,62.60
2018-03-06T02:59:22.051Z,63.50
2018-03-06T03:01:49.701Z,62.60
2018-03-06T03:04:17.310Z,62.50
2018-03-06T03:06:44.953Z,62.50
2018-03-06T03:09:13.478Z,62.90
2018-03-06T03:11:41.115Z,62.90
2018-03-06T03:14:08.784Z,63.50
2018-03-06T03:16:37.178Z,63.50
2018-03-06T03:19:04.898Z,62.90
2018-03-06T03:21:33.330Z,62.70
2018-03-06T03:24:00.946Z,62.70
2018-03-06T03:26:28.602Z,62.60
2018-03-06T03:28:56.582Z,62.60
2018-03-06T03:31:24.255Z,62.50
2018-03-06T03:33:51.920Z,62.60
2018-03-06T03:36:20.322Z,62.60
2018-03-06T03:38:47.986Z,62.60
2018-03-06T03:41:15.634Z,62.70
2018-03-06T03:43:43.293Z,62.70
2018-03-06T03:46:10.936Z,62.40
2018-03-06T03:48:38.557Z,62.40
2018-03-06T03:51:06.209Z,62.50
2018-03-06T03:53:33.841Z,62.30
2018-03-06T03:56:01.491Z,62.30
2018-03-06T03:58:29.113Z,62.50
2018-03-06T04:00:56.777Z,62.20
2018-03-06T04:03:24.414Z,62.60
2018-03-06T04:05:52.049Z,62.60
2018-03-06T04:08:20.464Z,62.70
2018-03-06T04:10:48.122Z,62.70
2018-03-06T04:13:15.756Z,62.90
2018-03-06T04:15:43.372Z,62.90
2018-03-06T04:18:11.032Z,62.80
2018-03-06T04:20:38.684Z,62.70
2018-03-06T04:23:06.325Z,62.70
2018-03-06T04:25:33.945Z,62.80
2018-03-06T04:28:01.602Z,62.70
2018-03-06T04:30:29.257Z,62.70
2018-03-06T04:32:56.872Z,62.70
2018-03-06T04:35:25.265Z,62.70
2018-03-06T04:37:52.917Z,62.70
2018-03-06T04:40:20.565Z,62.70
2018-03-06T04:42:48.273Z,63.00
2018-03-06T04:45:15.973Z,62.90
2018-03-06T04:47:43.650Z,62.70
2018-03-06T04:50:11.265Z,62.60
2018-03-06T04:52:38.892Z,62.60
2018-03-06T04:55:06.552Z,62.70
2018-03-06T04:57:34.226Z,62.90
2018-03-06T05:00:01.841Z,62.80
2018-03-06T05:02:29.470Z,62.90
2018-03-06T05:04:57.127Z,62.70
2018-03-06T05:07:25.155Z,62.70
2018-03-06T05:09:53.593Z,62.40
2018-03-06T05:12:21.308Z,62.40
2018-03-06T05:14:48.933Z,62.30
2018-03-06T05:17:16.664Z,62.30
2018-03-06T05:19:44.310Z,62.50
2018-03-06T05:22:13.615Z,62.80
2018-03-06T05:24:42.025Z,63.70
2018-03-06T05:27:10.955Z,62.80
2018-03-06T05:29:38.837Z,62.80
2018-03-06T05:32:06.476Z,62.80
2018-03-06T05:34:34.114Z,63.00
2018-03-06T05:37:01.905Z,64.00
2018-03-06T05:39:29.542Z,63.10
2018-03-06T05:41:57.172Z,63.10
2018-03-06T05:44:24.854Z,63.00
2018-03-06T05:46:52.469Z,62.90
2018-03-06T05:49:20.104Z,62.80
2018-03-06T05:51:47.736Z,62.80
2018-03-06T05:54:15.398Z,62.70
2018-03-06T05:56:43.145Z,62.70
2018-03-06T05:59:10.801Z,62.70
2018-03-06T06:01:38.420Z,62.60
2018-03-06T06:04:06.801Z,62.40
2018-03-06T06:06:34.453Z,62.30
2018-03-06T06:09:02.831Z,62.20
2018-03-06T06:11:30.488Z,62.20
2018-03-06T06:13:58.116Z,62.20
2018-03-06T06:16:26.504Z,62.00
2018-03-06T06:21:20.337Z,61.80
2018-03-06T06:23:47.945Z,61.70
2018-03-06T06:26:15.544Z,61.80
2018-03-06T06:28:43.185Z,62.00
2018-03-06T06:31:10.824Z,62.00
2018-03-06T06:33:39.204Z,62.50
2018-03-06T06:36:06.809Z,62.50
2018-03-06T06:38:34.541Z,62.60
2018-03-06T06:41:02.941Z,62.80
2018-03-06T06:43:31.349Z,62.70
2018-03-06T06:45:58.990Z,62.60
2018-03-06T06:48:26.584Z,62.30
2018-03-06T06:50:54.219Z,62.50
2018-03-06T06:53:21.821Z,62.50
2018-03-06T06:55:49.449Z,62.50
2018-03-06T06:58:17.819Z,62.20
2018-03-06T07:00:45.464Z,62.10
2018-03-06T07:03:13.169Z,62.20
2018-03-06T07:05:40.809Z,62.20
2018-03-06T07:08:08.409Z,62.20
2018-03-06T07:10:36.013Z,62.20
2018-03-06T07:13:03.638Z,62.30
2018-03-06T07:15:31.298Z,62.30
2018-03-06T07:17:58.893Z,62.00
2018-03-06T07:20:26.499Z,61.90
2018-03-06T07:22:54.129Z,61.80
2018-03-06T07:25:21.726Z,61.90
2018-03-06T07:27:49.362Z,61.80
2018-03-06T07:30:17.791Z,61.70
2018-03-06T07:32:45.436Z,61.60
2018-03-06T07:35:13.942Z,61.20
2018-03-06T07:37:41.593Z,61.50
2018-03-06T07:40:09.225Z,61.10
2018-03-06T07:42:36.862Z,61.00
2018-03-06T07:45:04.524Z,60.70
2018-03-06T07:47:32.129Z,60.30
2018-03-06T07:49:59.789Z,60.00
2018-03-06T07:52:27.387Z,60.20
2018-03-06T07:54:54.993Z,60.20
2018-03-06T07:57:22.767Z,60.40
2018-03-06T07:59:50.405Z,60.40
2018-03-06T08:02:18.786Z,60.60
2018-03-06T08:04:47.182Z,60.40
2018-03-06T08:07:15.987Z,60.30
2018-03-06T08:09:44.413Z,60.50
2018-03-06T08:12:12.042Z,60.50
2018-03-06T08:14:39.784Z,60.40
2018-03-06T08:17:07.442Z,59.80
2018-03-06T08:19:35.089Z,59.80
2018-03-06T08:22:02.689Z,59.80
2018-03-06T08:24:30.334Z,60.40
2018-03-06T08:26:57.981Z,59.50
2018-03-06T08:29:25.726Z,59.60
2018-03-06T08:31:54.179Z,59.50
2018-03-06T08:34:21.820Z,59.50
2018-03-06T08:36:49.426Z,59.30
2018-03-06T08:39:17.142Z,59.50
2018-03-06T08:41:44.897Z,59.50
2018-03-06T08:44:13.446Z,59.40
2018-03-06T08:46:41.854Z,59.30
2018-03-06T08:49:10.313Z,59.20
2018-03-06T08:51:38.709Z,59.10
2018-03-06T08:54:06.323Z,59.20
2018-03-06T08:56:39.773Z,59.50
2018-03-06T08:59:07.402Z,59.40
2018-03-06T09:01:35.009Z,59.50
2018-03-06T09:04:03.404Z,59.80
2018-03-06T09:06:31.013Z,59.70
2018-03-06T09:08:59.416Z,59.70
2018-03-06T09:11:27.021Z,59.60
2018-03-06T09:13:55.414Z,59.50
2018-03-06T09:16:23.056Z,59.40
2018-03-06T09:18:50.693Z,59.50
2018-03-06T09:21:18.326Z,59.50
2018-03-06T09:23:46.697Z,59.10
2018-03-06T09:26:15.096Z,59.20
2018-03-06T09:28:42.702Z,59.20
2018-03-06T09:31:11.065Z,58.90
2018-03-06T09:33:38.729Z,58.80
2018-03-06T09:36:06.354Z,59.00
2018-03-06T09:38:34.723Z,59.30
2018-03-06T09:41:03.117Z,59.30
2018-03-06T09:43:30.772Z,59.20
2018-03-06T09:45:58.461Z,59.30
2018-03-06T09:48:26.064Z,59.40
2018-03-06T09:50:53.693Z,59.20
2018-03-06T09:53:21.293Z,59.00
2018-03-06T09:55:48.951Z,59.00
2018-03-06T09:58:16.557Z,59.10
2018-03-06T10:00:44.181Z,59.20
2018-03-06T10:03:12.401Z,58.90
2018-03-06T10:05:40.001Z,59.00
2018-03-06T10:08:07.637Z,59.30
2018-03-06T10:10:35.293Z,59.20
2018-03-06T10:13:02.904Z,59.10
2018-03-06T10:15:31.305Z,58.70
2018-03-06T10:17:59.142Z,58.70
2018-03-06T10:20:26.837Z,58.60
2018-03-06T10:22:54.449Z,58.50
2018-03-06T10:25:22.088Z,58.30
2018-03-06T10:27:49.692Z,58.40
2018-03-06T10:30:17.572Z,58.10
2018-03-06T10:32:45.968Z,58.10
2018-03-06T10:35:13.572Z,58.10
2018-03-06T10:37:41.996Z,57.80
2018-03-06T10:40:09.671Z,57.80
2018-03-06T10:42:37.569Z,58.00
2018-03-06T10:45:05.173Z,58.20
2018-03-06T10:47:33.544Z,57.90
2018-03-06T10:50:01.950Z,57.90
2018-03-06T10:52:29.657Z,57.90
2018-03-06T10:54:57.326Z,57.80
2018-03-06T10:57:24.975Z,57.70
2018-03-06T10:59:52.592Z,57.90
2018-03-06T11:02:20.228Z,57.80
2018-03-06T11:04:48.169Z,57.50
2018-03-06T11:07:15.785Z,57.60
2018-03-06T11:09:43.439Z,57.70
2018-03-06T11:12:11.057Z,57.90
2018-03-06T11:14:38.660Z,58.10
2018-03-06T11:17:06.478Z,58.20
2018-03-06T11:19:34.080Z,58.30
2018-03-06T11:22:01.724Z,58.30
2018-03-06T11:24:30.098Z,58.20
2018-03-06T11:26:58.481Z,58.20
2018-03-06T11:29:26.122Z,58.10
2018-03-06T11:31:53.894Z,58.10
2018-03-06T11:34:21.569Z,57.90
2018-03-06T11:36:49.221Z,58.00
2018-03-06T11:39:16.857Z,58.00
2018-03-06T11:41:44.466Z,58.10
2018-03-06T11:44:12.214Z,58.00
2018-03-06T11:46:39.837Z,58.00
2018-03-06T11:49:08.238Z,57.80
2018-03-06T11:51:36.001Z,57.80
2018-03-06T11:54:03.662Z,57.70
2018-03-06T11:56:31.267Z,57.90
2018-03-06T11:58:58.894Z,58.00
2018-03-06T12:01:27.311Z,58.70
2018-03-06T12:03:54.997Z,58.00
2018-03-06T12:06:22.653Z,58.20
2018-03-06T12:08:51.030Z,58.00
2018-03-06T12:11:18.653Z,57.90
2018-03-06T12:13:46.318Z,58.60
2018-03-06T12:16:14.723Z,58.10
2018-03-06T12:18:42.342Z,58.10
2018-03-06T12:21:09.989Z,58.20
2018-03-06T12:23:37.622Z,58.30
2018-03-06T12:26:06.063Z,58.10
2018-03-06T12:28:33.701Z,58.00
2018-03-06T12:31:01.462Z,58.10
2018-03-06T12:33:29.105Z,58.70
2018-03-06T12:35:56.726Z,58.20
2018-03-06T12:38:24.361Z,58.40
2018-03-06T12:40:52.003Z,58.30
2018-03-06T12:43:19.649Z,58.40
2018-03-06T12:45:47.332Z,58.50
2018-03-06T12:48:14.978Z,58.30
2018-03-06T12:50:42.614Z,58.40
2018-03-06T12:53:10.303Z,58.40
2018-03-06T12:55:37.976Z,58.20
2018-03-06T12:58:05.606Z,58.30
2018-03-06T13:00:34.037Z,59.20
2018-03-06T13:03:01.681Z,58.50
2018-03-06T13:05:29.288Z,58.30
2018-03-06T13:07:56.989Z,58.30
2018-03-06T13:10:24.601Z,58.30
2018-03-06T13:12:52.241Z,58.50
2018-03-06T13:15:19.915Z,58.60
2018-03-06T13:17:47.592Z,58.70
2018-03-06T13:20:15.216Z,58.70
2018-03-06T13:22:42.839Z,59.00
2018-03-06T13:25:10.481Z,59.00
2018-03-06T13:27:38.107Z,59.00
2018-03-06T13:30:05.772Z,59.00
2018-03-06T13:32:33.409Z,59.10
2018-03-06T13:35:01.041Z,59.10
2018-03-06T13:37:28.739Z,59.20
2018-03-06T13:39:57.116Z,59.30
2018-03-06T13:42:24.757Z,59.30
2018-03-06T13:44:52.452Z,59.20
2018-03-06T13:47:20.048Z,59.20
2018-03-06T13:49:47.693Z,59.40
2018-03-06T13:52:15.347Z,59.20
2018-03-06T13:54:42.990Z,59.00
2018-03-06T13:57:10.646Z,59.10
2018-03-06T13:59:38.255Z,59.30
2018-03-06T14:02:05.885Z,59.30
2018-03-06T14:04:33.521Z,59.40
2018-03-06T14:07:01.913Z,59.30
2018-03-06T14:09:29.529Z,59.30
2018-03-06T14:11:57.928Z,59.70
2018-03-06T14:14:25.542Z,59.70
2018-03-06T14:16:53.184Z,59.70
2018-03-06T14:19:20.857Z,59.60
2018-03-06T14:21:48.461Z,59.70
2018-03-06T14:24:16.865Z,59.60
2018-03-06T14:26:44.470Z,59.60
2018-03-06T14:29:12.110Z,59.80
2018-03-06T14:31:39.755Z,59.90
2018-03-06T14:34:07.405Z,60.00
2018-03-06T14:36:35.028Z,60.00
2018-03-06T14:39:02.663Z,60.20
2018-03-06T14:41:30.292Z,60.30
2018-03-06T14:43:57.898Z,60.40
2018-03-06T14:46:25.529Z,60.40
2018-03-06T14:48:53.166Z,60.50
2018-03-06T14:51:20.792Z,60.70
2018-03-06T14:53:48.447Z,60.70
2018-03-06T14:56:16.055Z,60.80
2018-03-06T14:58:43.700Z,60.90
2018-03-06T15:01:12.089Z,60.90
2018-03-06T15:03:39.697Z,60.90
2018-03-06T15:06:08.109Z,61.20
2018-03-06T15:08:35.755Z,61.10
2018-03-06T15:11:03.360Z,61.40
2018-03-06T15:13:31.800Z,61.40
2018-03-06T15:15:59.434Z,61.40
2018-03-06T15:18:27.064Z,61.60
2018-03-06T15:20:54.674Z,61.60
2018-03-06T15:23:22.325Z,61.50
2018-03-06T15:25:49.959Z,61.90
2018-03-06T15:28:18.334Z,62.00
2018-03-06T15:30:46.773Z,62.30
2018-03-06T15:33:14.382Z,62.20
2018-03-06T15:35:42.356Z,62.20
2018-03-06T15:38:10.003Z,62.30
2018-03-06T15:40:37.755Z,62.60
2018-03-06T15:43:05.528Z,62.70
2018-03-06T15:45:33.940Z,63.00
2018-03-06T15:48:01.637Z,62.90
2018-03-06T15:50:29.279Z,63.00
2018-03-06T15:52:56.954Z,63.20
2018-03-06T15:55:25.369Z,63.50
2018-03-06T15:57:53.041Z,63.50
2018-03-06T16:00:20.881Z,63.50
2018-03-06T16:02:48.727Z,63.60
2018-03-06T16:05:16.366Z,63.70
2018-03-06T16:07:44.002Z,63.90
2018-03-06T16:10:11.672Z,64.00
2018-03-06T16:12:39.443Z,64.20
2018-03-06T16:15:07.879Z,64.80
2018-03-06T16:17:35.569Z,64.20
2018-03-06T16:20:03.973Z,64.40
2018-03-06T16:22:31.614Z,64.80
2018-03-06T16:24:59.292Z,64.60
2018-03-06T16:27:26.936Z,64.60
2018-03-06T16:29:54.606Z,64.70
2018-03-06T16:32:23.018Z,65.70
2018-03-06T16:34:50.800Z,64.90
2018-03-06T16:37:18.552Z,65.00
2018-03-06T16:39:46.303Z,65.00
2018-03-06T16:42:14.078Z,65.00
2018-03-06T16:44:42.719Z,65.20
2018-03-06T16:47:10.358Z,65.20
2018-03-06T16:49:38.119Z,65.30
2018-03-06T16:52:06.892Z,65.30
2018-03-06T16:54:34.566Z,65.50
2018-03-06T16:57:02.998Z,65.90
2018-03-06T16:59:30.788Z,65.70
2018-03-06T17:01:58.506Z,65.70
2018-03-06T17:04:26.254Z,65.90
2018-03-06T17:06:53.904Z,66.00
2018-03-06T17:09:21.678Z,66.20
2018-03-06T17:11:50.217Z,66.30
2018-03-06T17:14:17.968Z,66.30
2018-03-06T17:16:45.855Z,66.50
2018-03-06T17:19:14.387Z,66.80
2018-03-06T17:21:43.262Z,66.80
2018-03-06T17:24:10.894Z,66.70
2018-03-06T17:26:38.537Z,66.70
2018-03-06T17:29:06.207Z,66.70
2018-03-06T17:31:33.974Z,66.70
2018-03-06T17:34:02.525Z,67.70
2018-03-06T17:36:30.380Z,66.70
2018-03-06T17:38:58.231Z,66.90
2018-03-06T17:41:25.998Z,67.00
2018-03-06T17:43:54.545Z,67.60
2018-03-06T17:46:22.294Z,67.00
2018-03-06T17:48:49.974Z,67.00
2018-03-06T17:51:18.430Z,67.00
2018-03-06T17:53:46.157Z,67.10
2018-03-06T17:56:13.894Z,67.10
2018-03-06T17:58:42.824Z,67.10
2018-03-06T18:01:11.282Z,67.10
2018-03-06T18:03:39.845Z,67.00
2018-03-06T18:06:08.387Z,67.40
2018-03-06T18:08:36.058Z,66.70
2018-03-06T18:11:03.818Z,66.80
2018-03-06T18:13:32.351Z,66.70
2018-03-06T18:16:00.203Z,66.70
2018-03-06T18:18:27.952Z,66.40
2018-03-06T18:20:55.702Z,66.40
2018-03-06T18:23:23.474Z,66.50
2018-03-06T18:25:52.019Z,66.70
2018-03-06T18:28:19.818Z,66.70
2018-03-06T18:30:47.619Z,66.70
2018-03-06T18:33:15.479Z,67.00
2018-03-06T18:35:43.325Z,67.20
2018-03-06T18:38:11.102Z,67.30
2018-03-06T18:40:38.850Z,67.30
2018-03-06T18:43:07.393Z,67.40
2018-03-06T18:45:35.054Z,67.40
2018-03-06T18:48:02.698Z,67.20
2018-03-06T18:50:42.385Z,67.20
2018-03-06T18:53:10.114Z,67.10
2018-03-06T18:55:37.813Z,66.90
2018-03-06T18:58:05.586Z,66.80
2018-03-06T19:03:50.611Z,66.80
2018-03-06T19:06:24.205Z,66.90
2018-03-06T19:08:51.974Z,66.80
2018-03-06T19:11:20.410Z,66.90
2018-03-06T19:13:49.626Z,66.90
2018-03-06T19:16:18.175Z,66.70
2018-03-06T19:18:46.020Z,66.70
2018-03-06T19:21:13.770Z,67.60
2018-03-06T19:23:41.446Z,66.80
2018-03-06T19:26:09.913Z,67.00
2018-03-06T19:28:37.578Z,67.00
2018-03-06T19:31:06.103Z,67.00
2018-03-06T19:33:33.874Z,66.80
2018-03-06T19:36:02.321Z,67.10
2018-03-06T19:38:29.957Z,67.00
2018-03-06T19:40:57.593Z,67.20
2018-03-06T19:43:25.197Z,67.30
2018-03-06T19:45:52.834Z,67.20
2018-03-06T19:48:21.218Z,67.30
2018-03-06T19:50:48.868Z,67.20
2018-03-06T19:53:16.481Z,67.30
2018-03-06T19:55:44.866Z,67.30
2018-03-06T19:58:13.105Z,67.10
2018-03-06T20:00:40.709Z,67.30
2018-03-06T20:03:08.385Z,67.50
2018-03-06T20:05:36.024Z,67.80
2018-03-06T20:08:03.633Z,68.40
2018-03-06T20:10:31.272Z,69.10
2018-03-06T20:12:58.885Z,69.40
2018-03-06T20:15:27.288Z,69.60
2018-03-06T20:17:54.890Z,69.50
2018-03-06T20:20:22.538Z,69.50
2018-03-06T20:22:50.179Z,69.30
2018-03-06T20:25:23.750Z,69.20
2018-03-06T20:27:51.385Z,68.90
2018-03-06T20:30:24.689Z,68.60
2018-03-06T20:32:58.062Z,68.40
2018-03-06T20:35:25.670Z,68.20
2018-03-06T20:37:53.346Z,68.00
2018-03-06T20:40:26.752Z,68.00
2018-03-06T20:42:54.405Z,67.80
2018-03-06T20:45:22.850Z,68.00
2018-03-06T20:47:50.456Z,68.00
2018-03-06T20:50:18.105Z,68.00
2018-03-06T20:52:51.480Z,68.10
2018-03-06T20:55:19.154Z,68.10
2018-03-06T20:57:46.757Z,67.90
2018-03-06T21:00:15.196Z,67.80
2018-03-06T21:02:42.802Z,67.70
2018-03-06T21:05:10.437Z,67.40
2018-03-06T21:07:38.125Z,67.30
2018-03-06T21:10:05.767Z,67.10
2018-03-06T21:12:33.380Z,66.70
2018-03-06T21:15:01.005Z,66.60
2018-03-06T21:17:29.417Z,66.40
2018-03-06T21:19:57.441Z,66.40
2018-03-06T21:22:25.156Z,66.20
2018-03-06T21:24:53.612Z,66.40
2018-03-06T21:27:21.242Z,66.20
2018-03-06T21:29:48.855Z,66.40
2018-03-06T21:32:16.497Z,66.40
2018-03-06T21:34:44.134Z,66.60
2018-03-06T21:37:11.742Z,66.80
2018-03-06T21:39:39.368Z,67.00
2018-03-06T21:42:06.974Z,67.20
2018-03-06T21:44:34.642Z,67.10
2018-03-06T21:47:02.247Z,67.20
2018-03-06T21:49:30.660Z,67.50
2018-03-06T21:51:58.269Z,67.50
2018-03-06T21:54:26.637Z,68.30
2018-03-06T21:56:54.279Z,67.50
2018-03-06T21:59:22.693Z,68.10
2018-03-06T22:01:50.317Z,68.10
2018-03-06T22:04:18.126Z,67.80
2018-03-06T22:06:46.530Z,68.70
2018-03-06T22:09:14.137Z,68.70
2018-03-06T22:11:42.560Z,69.40
2018-03-06T22:14:10.166Z,69.40
2018-03-06T22:16:37.871Z,69.60
2018-03-06T22:19:05.522Z,69.50
2018-03-06T22:21:33.145Z,69.80
2018-03-06T22:24:00.748Z,70.00
2018-03-06T22:26:29.145Z,70.60
2018-03-06T22:28:56.824Z,70.60
2018-03-06T22:31:24.480Z,70.70
2018-03-06T22:33:52.133Z,71.80
2018-03-06T22:36:19.733Z,71.40
2018-03-06T22:38:47.333Z,71.10
2018-03-06T22:41:15.875Z,71.50
2018-03-06T22:43:43.478Z,71.50
2018-03-06T22:46:11.109Z,71.60
2018-03-06T22:48:39.485Z,71.60
2018-03-06T22:51:07.133Z,71.60
2018-03-06T22:53:34.737Z,71.60
2018-03-06T22:56:02.336Z,72.30
2018-03-06T22:58:29.965Z,71.30
2018-03-06T23:00:57.593Z,71.30
2018-03-06T23:03:26.010Z,71.90
2018-03-06T23:05:53.610Z,71.90
2018-03-06T23:08:21.976Z,72.10
2018-03-06T23:10:50.388Z,72.20
2018-03-06T23:13:17.997Z,72.20
2018-03-06T23:15:45.657Z,72.30
2018-03-06T23:18:14.281Z,72.50
2018-03-06T23:20:42.015Z,72.40
2018-03-06T23:23:09.769Z,72.50
2018-03-06T23:25:37.401Z,72.80
2018-03-06T23:28:05.045Z,72.70
2018-03-06T23:30:32.645Z,72.70
2018-03-06T23:33:01.018Z,72.60
2018-03-06T23:35:28.653Z,72.50
2018-03-06T23:37:57.053Z,72.60
2018-03-06T23:40:24.657Z,72.50
2018-03-06T23:42:53.092Z,73.00
2018-03-06T23:45:20.693Z,72.90
2018-03-06T23:47:48.320Z,73.00
2018-03-06T23:50:16.689Z,73.10
2018-03-06T23:52:45.102Z,73.20
2018-03-06T23:55:12.738Z,73.10
2018-03-06T23:57:40.345Z,73.20
